Delmont, New Jersey
Current Conditions -  °F | °C
As of 9:54 AM on Thursday 23 Oct 2014 (Local Time) from KMIV Reporting Station
Overcast Overcast  
Wind Chill: 51°   Ceiling: 1600
Heat Index: 51°   Visibility: 10mi
Dew Point: 47°   Wind: 15mph
Humidity: 86%   Direction: 310°NW
Pressure: 29.77"   Gusts: NA
Location:  39.21°N, 74.95°W
Report Text: KMIV 231354Z AUTO 31013KT 10SM BKN016 OVC048 11/08 A2977 RMK AO2 SLP080 T01060083
Loading
Personal Weather Stations






























Interactive Weather Map
Tropical Storm Tracking
New forecast layout! Learn more

10-Day Weather Forecast

Advertisements
Track Severe Weather on mobile